Time;durP1;ratioP1;P1;durP2;ratioP2;P2;SDS_P1;SDS_P2;PMS_P1;PMS_P2;Temp;Humidity;BMP_temperature;BMP_pressure;BME280_temperature;BME280_humidity;BME280_pressure;Samples;Min_cycle;Max_cycle;Signal;HPM_P1;HPM_P2
2024/04/14 00:01:43;;;;;;;;;;;16.20;99.90;;;;;;5337994;26;19930;-47
2024/04/14 00:04:09;;;;;;;;;;;16.20;99.90;;;;;;5348002;26;20020;-46
2024/04/14 00:06:34;;;;;;;;;;;16.20;99.90;;;;;;5339036;26;20000;-47
2024/04/14 00:09:00;;;;;;;;;;;16.20;99.90;;;;;;5350967;26;19930;-48
2024/04/14 00:11:26;;;;;;;;;;;16.20;99.90;;;;;;5350633;26;19958;-47
2024/04/14 00:13:51;;;;;;;;;;;16.20;99.90;;;;;;5351158;26;19937;-47
2024/04/14 00:16:17;;;;;;;;;;;16.10;99.90;;;;;;5335062;26;19939;-47
2024/04/14 00:18:42;;;;;;;;;;;16.10;99.90;;;;;;5343281;26;19937;-47
2024/04/14 00:21:08;;;;;;;;;;;16.10;99.90;;;;;;5335619;26;19942;-47
2024/04/14 00:23:33;;;;;;;;;;;16.10;99.90;;;;;;5342827;26;20369;-48
2024/04/14 00:25:59;;;;;;;;;;;16.10;99.90;;;;;;5322144;26;19936;-47
2024/04/14 00:28:24;;;;;;;;;;;16.10;99.90;;;;;;5348125;26;20028;-47
2024/04/14 00:30:50;;;;;;;;;;;16.10;99.90;;;;;;5350030;26;19944;-47
2024/04/14 00:33:15;;;;;;;;;;;16.00;99.90;;;;;;5338074;26;20313;-47
2024/04/14 00:35:41;;;;;;;;;;;16.00;99.90;;;;;;5333643;26;20389;-47
2024/04/14 00:38:07;;;;;;;;;;;16.00;99.90;;;;;;5350327;26;20368;-47
2024/04/14 00:40:32;;;;;;;;;;;16.00;99.90;;;;;;5343008;26;19942;-48
2024/04/14 00:42:58;;;;;;;;;;;16.00;99.90;;;;;;5346187;26;19938;-47
2024/04/14 00:45:25;;;;;;;;;;;16.00;99.90;;;;;;5346131;26;19999;-47
2024/04/14 00:47:50;;;;;;;;;;;16.00;99.90;;;;;;5351048;26;19958;-47
2024/04/14 00:50:17;;;;;;;;;;;16.00;99.90;;;;;;5349908;26;20382;-47
2024/04/14 00:52:43;;;;;;;;;;;15.90;99.90;;;;;;5347709;26;19942;-48
2024/04/14 00:55:09;;;;;;;;;;;15.90;99.90;;;;;;5346912;26;19941;-47
2024/04/14 00:57:34;;;;;;;;;;;15.90;99.90;;;;;;5348033;26;19938;-47
2024/04/14 01:00:01;;;;;;;;;;;15.90;99.90;;;;;;5350666;26;19931;-47
2024/04/14 01:02:27;;;;;;;;;;;15.90;99.90;;;;;;5349388;26;19966;-47
2024/04/14 01:04:53;;;;;;;;;;;15.80;99.90;;;;;;5350286;26;20107;-47
2024/04/14 01:07:18;;;;;;;;;;;15.90;99.90;;;;;;5349862;26;19954;-47
2024/04/14 01:09:44;;;;;;;;;;;15.90;99.90;;;;;;5327465;26;19930;-47
2024/04/14 01:12:09;;;;;;;;;;;15.80;99.90;;;;;;5350398;26;19938;-47
2024/04/14 01:14:35;;;;;;;;;;;15.80;99.90;;;;;;5349486;26;20465;-49
2024/04/14 01:17:01;;;;;;;;;;;15.80;99.90;;;;;;5342055;26;19930;-48
2024/04/14 01:19:26;;;;;;;;;;;15.80;99.90;;;;;;5333259;26;20278;-47
2024/04/14 01:21:52;;;;;;;;;;;15.80;99.90;;;;;;5337863;26;20289;-47
2024/04/14 01:24:17;;;;;;;;;;;15.80;99.90;;;;;;5337481;26;20326;-47
2024/04/14 01:26:43;;;;;;;;;;;15.80;99.90;;;;;;5337863;26;19999;-47
2024/04/14 01:29:08;;;;;;;;;;;15.80;99.90;;;;;;5349644;26;19937;-47
2024/04/14 01:31:34;;;;;;;;;;;15.80;99.90;;;;;;5332210;26;19930;-47
2024/04/14 01:34:00;;;;;;;;;;;15.80;99.90;;;;;;5349556;26;19930;-47
2024/04/14 01:36:27;;;;;;;;;;;15.70;99.90;;;;;;5331745;26;21475;-47
2024/04/14 01:38:53;;;;;;;;;;;15.70;99.90;;;;;;5340434;26;19942;-48
2024/04/14 01:41:18;;;;;;;;;;;15.80;99.90;;;;;;5332871;26;19934;-47
2024/04/14 01:43:44;;;;;;;;;;;15.80;99.90;;;;;;5331703;26;19942;-47
2024/04/14 01:46:10;;;;;;;;;;;15.70;99.90;;;;;;5350108;26;19930;-47
2024/04/14 01:48:35;;;;;;;;;;;15.80;99.90;;;;;;5349346;26;20265;-47
2024/04/14 01:51:01;;;;;;;;;;;15.70;99.90;;;;;;5349168;26;19930;-47
2024/04/14 01:53:26;;;;;;;;;;;15.70;99.90;;;;;;5334005;26;19937;-47
2024/04/14 01:55:52;;;;;;;;;;;15.80;99.90;;;;;;5349550;26;19967;-47
2024/04/14 01:58:17;;;;;;;;;;;15.80;99.90;;;;;;5347717;26;19938;-47
2024/04/14 02:00:43;;;;;;;;;;;15.80;99.90;;;;;;5334776;26;19941;-47
2024/04/14 02:03:08;;;;;;;;;;;15.80;99.90;;;;;;5336061;26;19937;-47
2024/04/14 02:05:34;;;;;;;;;;;15.80;99.90;;;;;;5336117;26;19966;-47
2024/04/14 02:07:59;;;;;;;;;;;15.80;99.90;;;;;;5339879;26;20399;-47
2024/04/14 02:10:25;;;;;;;;;;;15.80;99.90;;;;;;5331307;26;19941;-47
2024/04/14 02:12:50;;;;;;;;;;;15.80;99.90;;;;;;5336977;26;19962;-48
2024/04/14 02:15:16;;;;;;;;;;;15.80;99.90;;;;;;5336727;26;19930;-47
2024/04/14 02:17:41;;;;;;;;;;;15.80;99.90;;;;;;5334060;26;19931;-48
2024/04/14 02:20:10;;;;;;;;;;;15.70;99.90;;;;;;5336826;26;19930;-47
2024/04/14 02:22:36;;;;;;;;;;;15.70;99.90;;;;;;5340751;26;19939;-47
2024/04/14 02:25:01;;;;;;;;;;;15.70;99.90;;;;;;5349060;26;20436;-47
2024/04/14 02:27:27;;;;;;;;;;;15.80;99.90;;;;;;5347810;26;19950;-47
2024/04/14 02:29:52;;;;;;;;;;;15.70;99.90;;;;;;5338978;26;19930;-47
2024/04/14 02:32:18;;;;;;;;;;;15.80;99.90;;;;;;5334998;26;19939;-47
2024/04/14 02:34:43;;;;;;;;;;;15.70;99.90;;;;;;5346718;26;20010;-47
2024/04/14 02:37:09;;;;;;;;;;;15.70;99.90;;;;;;5341218;26;19930;-46
2024/04/14 02:39:34;;;;;;;;;;;15.70;99.90;;;;;;5346884;26;20443;-47
2024/04/14 02:42:00;;;;;;;;;;;15.70;99.90;;;;;;5348836;26;19930;-47
2024/04/14 02:44:25;;;;;;;;;;;15.70;99.90;;;;;;5343260;26;20007;-47
2024/04/14 02:46:51;;;;;;;;;;;15.70;99.90;;;;;;5343380;26;19930;-47
2024/04/14 02:49:16;;;;;;;;;;;15.70;99.90;;;;;;5343567;26;19930;-47
2024/04/14 02:51:43;;;;;;;;;;;15.70;99.90;;;;;;5344186;26;19967;-47
2024/04/14 02:54:08;;;;;;;;;;;15.70;99.90;;;;;;5348494;26;19930;-47
2024/04/14 02:56:34;;;;;;;;;;;15.70;99.90;;;;;;5348031;26;19937;-47
2024/04/14 02:58:59;;;;;;;;;;;15.70;99.90;;;;;;5349178;26;19936;-48
2024/04/14 03:01:25;;;;;;;;;;;15.70;99.90;;;;;;5341633;26;19938;-47
2024/04/14 03:03:50;;;;;;;;;;;15.70;99.90;;;;;;5330844;26;19933;-47
2024/04/14 03:06:16;;;;;;;;;;;15.70;99.90;;;;;;5343485;26;19945;-47
2024/04/14 03:08:41;;;;;;;;;;;15.70;99.90;;;;;;5348607;26;19966;-47
2024/04/14 03:11:08;;;;;;;;;;;15.70;99.90;;;;;;5341718;26;19945;-47
2024/04/14 03:13:33;;;;;;;;;;;15.70;99.90;;;;;;5347053;26;20003;-47
2024/04/14 03:16:01;;;;;;;;;;;15.70;99.90;;;;;;5339279;26;19942;-47
2024/04/14 03:18:26;;;;;;;;;;;15.70;99.90;;;;;;5338297;26;20286;-47
2024/04/14 03:20:56;;;;;;;;;;;15.70;99.90;;;;;;5352546;26;19938;-47
2024/04/14 03:23:22;;;;;;;;;;;15.60;99.90;;;;;;5333739;26;20009;-47
2024/04/14 03:25:47;;;;;;;;;;;15.70;99.90;;;;;;5346560;26;19985;-47
2024/04/14 03:28:13;;;;;;;;;;;15.70;99.90;;;;;;5334083;26;19930;-48
2024/04/14 03:30:38;;;;;;;;;;;15.70;99.90;;;;;;5346846;26;19938;-47
2024/04/14 03:33:04;;;;;;;;;;;15.70;99.90;;;;;;5321776;26;19936;-47
2024/04/14 03:35:29;;;;;;;;;;;15.60;99.90;;;;;;5345551;26;20611;-47
2024/04/14 03:37:55;;;;;;;;;;;15.60;99.90;;;;;;5320939;26;19937;-46
2024/04/14 03:40:21;;;;;;;;;;;15.70;99.90;;;;;;5345558;26;19941;-48
2024/04/14 03:42:46;;;;;;;;;;;15.60;99.90;;;;;;5333128;26;20313;-47
2024/04/14 03:45:12;;;;;;;;;;;15.70;99.90;;;;;;5321677;26;19938;-48
2024/04/14 03:47:37;;;;;;;;;;;15.60;99.90;;;;;;5317379;26;19942;-47
2024/04/14 03:50:03;;;;;;;;;;;15.60;99.90;;;;;;5343805;26;19934;-47
2024/04/14 03:52:29;;;;;;;;;;;15.60;99.90;;;;;;5351533;26;20377;-49
2024/04/14 03:54:54;;;;;;;;;;;15.60;99.90;;;;;;5335775;26;19939;-48
2024/04/14 03:57:20;;;;;;;;;;;15.60;99.90;;;;;;5323391;26;20321;-47
2024/04/14 03:59:45;;;;;;;;;;;15.60;99.90;;;;;;5334894;26;19941;-47
2024/04/14 04:02:11;;;;;;;;;;;15.60;99.90;;;;;;5348954;26;19982;-48
2024/04/14 04:04:37;;;;;;;;;;;15.60;99.90;;;;;;5338239;26;19937;-47
2024/04/14 04:07:03;;;;;;;;;;;15.60;99.90;;;;;;5344156;26;19970;-49
2024/04/14 04:09:28;;;;;;;;;;;15.60;99.90;;;;;;5350563;26;19930;-48
2024/04/14 04:11:54;;;;;;;;;;;15.60;99.90;;;;;;5350832;26;19999;-50
2024/04/14 04:14:19;;;;;;;;;;;15.60;99.90;;;;;;5347310;26;20269;-48
2024/04/14 04:16:45;;;;;;;;;;;15.60;99.90;;;;;;5350105;26;20029;-52
2024/04/14 04:19:11;;;;;;;;;;;15.60;99.90;;;;;;5350389;26;19930;-52
2024/04/14 04:21:37;;;;;;;;;;;15.60;99.90;;;;;;5350869;26;19962;-53
2024/04/14 04:24:02;;;;;;;;;;;15.60;99.90;;;;;;5346496;26;19930;-52
2024/04/14 04:26:28;;;;;;;;;;;15.60;99.90;;;;;;5350866;26;19930;-53
2024/04/14 04:28:53;;;;;;;;;;;15.60;99.90;;;;;;5349292;26;20007;-53
2024/04/14 04:31:19;;;;;;;;;;;15.60;99.90;;;;;;5349185;26;19933;-52
2024/04/14 04:33:44;;;;;;;;;;;15.60;99.90;;;;;;5350820;26;19930;-52
2024/04/14 04:36:13;;;;;;;;;;;15.60;99.90;;;;;;5336271;26;19937;-52
2024/04/14 04:38:44;;;;;;;;;;;15.60;99.90;;;;;;5321629;26;19934;-53
2024/04/14 04:41:11;;;;;;;;;;;15.60;99.90;;;;;;5350437;26;19930;-52
2024/04/14 04:43:39;;;;;;;;;;;15.60;99.90;;;;;;5328544;26;20313;-52
2024/04/14 04:46:05;;;;;;;;;;;15.60;99.90;;;;;;5332737;26;19977;-52
2024/04/14 04:48:30;;;;;;;;;;;15.60;99.90;;;;;;5346591;26;20324;-53
2024/04/14 04:50:56;;;;;;;;;;;15.60;99.90;;;;;;5332990;26;20614;-53
2024/04/14 04:53:21;;;;;;;;;;;15.60;99.90;;;;;;5346448;26;19930;-53
2024/04/14 04:55:47;;;;;;;;;;;15.60;99.90;;;;;;5348849;26;19930;-53
2024/04/14 04:58:13;;;;;;;;;;;15.60;99.90;;;;;;5344173;26;19939;-54
2024/04/14 05:00:38;;;;;;;;;;;15.60;99.90;;;;;;5350271;26;19930;-51
2024/04/14 05:03:04;;;;;;;;;;;15.60;99.90;;;;;;5340283;26;19938;-53
2024/04/14 05:05:30;;;;;;;;;;;15.60;99.90;;;;;;5348881;26;20306;-52
2024/04/14 05:07:55;;;;;;;;;;;15.60;99.90;;;;;;5344551;26;19938;-52
2024/04/14 05:10:21;;;;;;;;;;;15.60;99.90;;;;;;5331366;26;19938;-53
2024/04/14 05:12:46;;;;;;;;;;;15.60;99.90;;;;;;5326776;26;19950;-54
2024/04/14 05:15:12;;;;;;;;;;;15.60;99.90;;;;;;5333677;26;19930;-54
2024/04/14 05:17:37;;;;;;;;;;;15.60;99.90;;;;;;5342150;26;19981;-51
2024/04/14 05:20:03;;;;;;;;;;;15.60;99.90;;;;;;5349971;26;19967;-52
2024/04/14 05:22:28;;;;;;;;;;;15.60;99.90;;;;;;5335456;26;19950;-49
2024/04/14 05:24:54;;;;;;;;;;;15.60;99.90;;;;;;5337674;26;20365;-48
2024/04/14 05:27:20;;;;;;;;;;;15.60;99.90;;;;;;5347553;26;19936;-49
2024/04/14 05:29:46;;;;;;;;;;;15.60;99.90;;;;;;5350266;26;20257;-52
2024/04/14 05:32:11;;;;;;;;;;;15.50;99.90;;;;;;5345105;26;19931;-49
2024/04/14 05:34:37;;;;;;;;;;;15.50;99.90;;;;;;5324518;26;20262;-50
2024/04/14 05:37:03;;;;;;;;;;;15.60;99.90;;;;;;5350057;26;19938;-49
2024/04/14 05:39:28;;;;;;;;;;;15.60;99.90;;;;;;5347098;26;19930;-50
2024/04/14 05:41:55;;;;;;;;;;;15.60;99.90;;;;;;5346557;26;19930;-48
2024/04/14 05:44:20;;;;;;;;;;;15.60;99.90;;;;;;5347048;26;19937;-50
2024/04/14 05:46:46;;;;;;;;;;;15.60;99.90;;;;;;5326999;26;19930;-50
2024/04/14 05:49:11;;;;;;;;;;;15.60;99.90;;;;;;5333128;26;19931;-51
2024/04/14 05:51:37;;;;;;;;;;;15.60;99.90;;;;;;5338603;26;19937;-48
2024/04/14 05:54:02;;;;;;;;;;;15.60;99.90;;;;;;5332068;26;19937;-50
2024/04/14 05:56:28;;;;;;;;;;;15.60;99.90;;;;;;5344372;26;19930;-47
2024/04/14 05:58:53;;;;;;;;;;;15.60;99.90;;;;;;5331664;26;19938;-49
2024/04/14 06:01:19;;;;;;;;;;;15.60;99.90;;;;;;5349671;26;19942;-48
2024/04/14 06:03:45;;;;;;;;;;;15.50;99.90;;;;;;5349964;26;20000;-48
2024/04/14 06:06:11;;;;;;;;;;;15.50;99.90;;;;;;5348772;26;19977;-50
2024/04/14 06:08:36;;;;;;;;;;;15.60;99.90;;;;;;5346858;26;19930;-48
2024/04/14 06:11:02;;;;;;;;;;;15.60;99.90;;;;;;5346911;26;19937;-50
2024/04/14 06:13:29;;;;;;;;;;;15.60;99.90;;;;;;5349005;26;19930;-48
2024/04/14 06:15:54;;;;;;;;;;;15.60;99.90;;;;;;5344590;26;19942;-48
2024/04/14 06:18:20;;;;;;;;;;;15.60;99.90;;;;;;5353211;26;19930;-48
2024/04/14 06:20:45;;;;;;;;;;;15.60;99.90;;;;;;5323285;26;20270;-50
2024/04/14 06:23:12;;;;;;;;;;;15.60;99.90;;;;;;5333459;26;19930;-52
2024/04/14 06:25:37;;;;;;;;;;;15.60;99.90;;;;;;5358235;26;19931;-50
2024/04/14 06:28:03;;;;;;;;;;;15.60;99.90;;;;;;5360927;26;19937;-47
2024/04/14 06:30:28;;;;;;;;;;;15.60;99.90;;;;;;5356551;26;19930;-49
2024/04/14 06:32:54;;;;;;;;;;;15.60;99.90;;;;;;5364596;26;19938;-49
2024/04/14 06:35:19;;;;;;;;;;;15.60;99.90;;;;;;5360112;26;20008;-49
2024/04/14 06:37:45;;;;;;;;;;;15.60;99.90;;;;;;5363598;26;19930;-48
2024/04/14 06:40:10;;;;;;;;;;;15.60;99.90;;;;;;5353836;26;20343;-52
2024/04/14 06:42:36;;;;;;;;;;;15.60;99.90;;;;;;5324139;26;20332;-47
2024/04/14 06:45:02;;;;;;;;;;;15.60;99.90;;;;;;5354793;26;19937;-55
2024/04/14 06:47:27;;;;;;;;;;;15.60;99.90;;;;;;5361755;26;19931;-52
2024/04/14 06:49:53;;;;;;;;;;;15.60;99.90;;;;;;5359638;26;19929;-51
2024/04/14 06:52:18;;;;;;;;;;;15.60;99.90;;;;;;5350827;26;19982;-49
2024/04/14 06:54:44;;;;;;;;;;;15.60;99.90;;;;;;5336885;26;19944;-48
2024/04/14 06:57:09;;;;;;;;;;;15.70;99.90;;;;;;5344874;26;19937;-48
2024/04/14 06:59:35;;;;;;;;;;;15.60;99.90;;;;;;5353415;26;19938;-47
2024/04/14 07:02:00;;;;;;;;;;;15.70;99.90;;;;;;5350128;26;19930;-48
2024/04/14 07:04:26;;;;;;;;;;;15.60;99.90;;;;;;5349405;26;19930;-51
2024/04/14 07:06:51;;;;;;;;;;;15.70;99.90;;;;;;5351347;26;20269;-49
2024/04/14 07:09:17;;;;;;;;;;;15.70;99.90;;;;;;5364737;26;20365;-48
2024/04/14 07:11:42;;;;;;;;;;;15.60;99.90;;;;;;5344390;26;19938;-50
2024/04/14 07:14:08;;;;;;;;;;;15.60;99.90;;;;;;5375607;26;19950;-49
2024/04/14 07:16:33;;;;;;;;;;;15.60;99.90;;;;;;5368324;26;19966;-49
2024/04/14 07:18:59;;;;;;;;;;;15.60;99.90;;;;;;5340372;26;19942;-48
2024/04/14 07:21:24;;;;;;;;;;;15.70;99.90;;;;;;5343975;26;20357;-48
2024/04/14 07:23:50;;;;;;;;;;;15.70;99.90;;;;;;5356254;26;20055;-49
2024/04/14 07:26:16;;;;;;;;;;;15.70;99.90;;;;;;5364039;26;19929;-49
2024/04/14 07:28:41;;;;;;;;;;;15.70;99.90;;;;;;5375777;26;19937;-49
2024/04/14 07:31:07;;;;;;;;;;;15.70;99.90;;;;;;5374838;26;19936;-50
2024/04/14 07:33:32;;;;;;;;;;;15.70;99.90;;;;;;5365639;26;19929;-48
2024/04/14 07:38:33;;;;;;;;;;;15.70;99.90;;;;;;5523226;21;19937;-48
2024/04/14 07:40:58;;;;;;;;;;;15.60;99.90;;;;;;5459722;26;19936;-49
2024/04/14 07:43:24;;;;;;;;;;;15.70;99.90;;;;;;5444673;26;20286;-51
2024/04/14 07:45:49;;;;;;;;;;;15.70;99.90;;;;;;5440158;26;19929;-49
2024/04/14 07:48:15;;;;;;;;;;;15.70;99.90;;;;;;5454298;26;19928;-49
2024/04/14 07:50:44;;;;;;;;;;;15.60;99.90;;;;;;5450612;26;19928;-50
2024/04/14 07:53:09;;;;;;;;;;;15.60;99.90;;;;;;5440833;26;19929;-48
2024/04/14 07:55:35;;;;;;;;;;;15.60;99.90;;;;;;5438398;26;19935;-49
2024/04/14 07:58:01;;;;;;;;;;;15.70;99.90;;;;;;5425751;26;19929;-48
2024/04/14 08:00:26;;;;;;;;;;;15.60;99.90;;;;;;5475011;26;19936;-49
2024/04/14 08:02:52;;;;;;;;;;;15.70;99.90;;;;;;5481209;26;20030;-50
2024/04/14 08:05:17;;;;;;;;;;;15.60;99.90;;;;;;5457559;26;19936;-51
2024/04/14 08:07:43;;;;;;;;;;;15.60;99.90;;;;;;5420672;26;19961;-50
2024/04/14 08:10:09;;;;;;;;;;;15.60;99.90;;;;;;5449110;26;19928;-51
2024/04/14 08:12:35;;;;;;;;;;;15.60;99.90;;;;;;5427306;26;19996;-51
2024/04/14 08:15:01;;;;;;;;;;;15.70;99.90;;;;;;5454172;26;20001;-51
2024/04/14 08:17:29;;;;;;;;;;;15.70;99.90;;;;;;5434764;26;19940;-48
2024/04/14 08:19:55;;;;;;;;;;;15.70;99.90;;;;;;5450485;26;19998;-56
2024/04/14 08:22:20;;;;;;;;;;;15.70;99.90;;;;;;5456604;26;19936;-52
2024/04/14 08:24:46;;;;;;;;;;;15.70;99.90;;;;;;5454903;26;19956;-48
2024/04/14 08:27:11;;;;;;;;;;;15.70;99.90;;;;;;5435165;26;19936;-51
2024/04/14 08:29:37;;;;;;;;;;;15.70;99.90;;;;;;5451443;26;20367;-50
2024/04/14 08:32:03;;;;;;;;;;;15.80;99.90;;;;;;5453866;26;19987;-52
2024/04/14 08:34:28;;;;;;;;;;;15.70;99.90;;;;;;5454828;26;20357;-49
2024/04/14 08:36:54;;;;;;;;;;;15.70;99.90;;;;;;5453149;26;20181;-50
2024/04/14 08:39:21;;;;;;;;;;;15.70;99.90;;;;;;5454435;26;19943;-51
2024/04/14 08:41:46;;;;;;;;;;;15.70;99.90;;;;;;5453608;26;20462;-49
2024/04/14 08:44:13;;;;;;;;;;;15.70;99.90;;;;;;5454495;26;19928;-50
2024/04/14 08:46:39;;;;;;;;;;;15.70;99.90;;;;;;5453735;26;20018;-49
2024/04/14 08:49:06;;;;;;;;;;;15.80;99.90;;;;;;5454239;26;19935;-47
2024/04/14 08:51:32;;;;;;;;;;;15.80;99.90;;;;;;5455128;26;19928;-47
2024/04/14 08:53:58;;;;;;;;;;;15.80;99.90;;;;;;5476024;26;19961;-47
2024/04/14 08:56:24;;;;;;;;;;;15.80;99.90;;;;;;5456484;26;19936;-49
2024/04/14 08:58:55;;;;;;;;;;;15.80;99.90;;;;;;5455806;26;20259;-48
2024/04/14 09:01:21;;;;;;;;;;;15.80;99.90;;;;;;5456216;26;20348;-48
2024/04/14 09:03:48;;;;;;;;;;;15.80;99.90;;;;;;5451330;26;19940;-47
2024/04/14 09:06:14;;;;;;;;;;;15.80;99.90;;;;;;5429235;26;19933;-48
2024/04/14 09:08:39;;;;;;;;;;;15.80;99.90;;;;;;5432552;26;19940;-48
2024/04/14 09:11:07;;;;;;;;;;;15.80;99.90;;;;;;5452502;26;19936;-49
2024/04/14 09:13:33;;;;;;;;;;;15.80;99.90;;;;;;5431394;26;19928;-47
2024/04/14 09:15:58;;;;;;;;;;;15.80;99.90;;;;;;5452361;26;19935;-48
2024/04/14 09:18:24;;;;;;;;;;;15.80;99.90;;;;;;5442082;26;20754;-47
2024/04/14 09:20:50;;;;;;;;;;;15.80;99.90;;;;;;5442507;26;20676;-47
2024/04/14 09:23:15;;;;;;;;;;;15.80;99.90;;;;;;5429280;26;20537;-47
2024/04/14 09:25:42;;;;;;;;;;;15.80;99.90;;;;;;5445455;26;19956;-47
2024/04/14 09:28:10;;;;;;;;;;;15.80;99.90;;;;;;5449716;26;20307;-48
2024/04/14 09:30:36;;;;;;;;;;;15.80;99.90;;;;;;5439892;26;19929;-49
2024/04/14 09:33:02;;;;;;;;;;;15.80;99.90;;;;;;5425463;26;19936;-47
2024/04/14 09:35:28;;;;;;;;;;;15.80;99.90;;;;;;5426100;26;19936;-47
2024/04/14 09:37:54;;;;;;;;;;;15.80;99.90;;;;;;5449954;26;20363;-47
2024/04/14 09:40:22;;;;;;;;;;;15.80;99.90;;;;;;5465037;26;19929;-49
2024/04/14 09:42:50;;;;;;;;;;;15.90;99.90;;;;;;5437467;26;19960;-49
2024/04/14 09:45:16;;;;;;;;;;;15.80;99.90;;;;;;5460620;26;19928;-48
2024/04/14 09:47:42;;;;;;;;;;;15.80;99.90;;;;;;5444974;26;19940;-49
2024/04/14 09:50:08;;;;;;;;;;;15.70;99.90;;;;;;5455133;26;20383;-51
2024/04/14 09:52:34;;;;;;;;;;;15.50;99.90;;;;;;5442504;26;19940;-49
2024/04/14 09:54:59;;;;;;;;;;;15.50;99.90;;;;;;5443706;26;19933;-49
2024/04/14 09:57:25;;;;;;;;;;;15.40;99.90;;;;;;5464914;26;19928;-49
2024/04/14 09:59:52;;;;;;;;;;;15.40;99.90;;;;;;5459745;26;20396;-53
2024/04/14 10:02:25;;;;;;;;;;;15.50;99.90;;;;;;5450790;26;19936;-53
2024/04/14 10:04:52;;;;;;;;;;;15.50;99.90;;;;;;5438859;26;19957;-53
2024/04/14 10:07:18;;;;;;;;;;;15.50;99.90;;;;;;5436467;26;19929;-53
2024/04/14 10:09:48;;;;;;;;;;;15.50;99.90;;;;;;5464075;26;20685;-53
2024/04/14 10:12:20;;;;;;;;;;;15.50;99.90;;;;;;5454084;26;19929;-50
2024/04/14 10:14:49;;;;;;;;;;;15.60;99.90;;;;;;5452302;26;19928;-51
2024/04/14 10:17:18;;;;;;;;;;;15.60;99.90;;;;;;5437662;26;19945;-51
2024/04/14 10:19:56;;;;;;;;;;;15.60;99.90;;;;;;5457339;26;20271;-51
2024/04/14 10:22:35;;;;;;;;;;;15.60;99.90;;;;;;5466761;26;19928;-51
2024/04/14 10:25:00;;;;;;;;;;;15.60;99.90;;;;;;5483196;26;20267;-51
2024/04/14 10:27:29;;;;;;;;;;;15.70;99.90;;;;;;5434556;26;20070;-52
2024/04/14 10:29:58;;;;;;;;;;;15.70;99.90;;;;;;5428711;26;19998;-52
2024/04/14 10:32:24;;;;;;;;;;;15.70;99.90;;;;;;5465057;26;19929;-53
2024/04/14 10:34:50;;;;;;;;;;;15.80;99.90;;;;;;5458177;26;19934;-52
2024/04/14 10:37:22;;;;;;;;;;;15.70;99.90;;;;;;5462930;26;19929;-52
2024/04/14 10:39:47;;;;;;;;;;;15.70;99.90;;;;;;5448562;26;19928;-52
2024/04/14 10:42:14;;;;;;;;;;;15.70;99.90;;;;;;5463343;26;20291;-52
2024/04/14 10:44:43;;;;;;;;;;;15.70;99.90;;;;;;5460861;26;20378;-52
2024/04/14 10:47:10;;;;;;;;;;;15.80;99.90;;;;;;5457678;26;19929;-53
2024/04/14 10:49:36;;;;;;;;;;;15.80;99.90;;;;;;5445871;26;20370;-54
2024/04/14 10:52:01;;;;;;;;;;;15.80;99.90;;;;;;5424536;26;19929;-54
2024/04/14 10:54:29;;;;;;;;;;;15.70;99.90;;;;;;5444136;26;19928;-52
2024/04/14 10:56:54;;;;;;;;;;;15.70;99.90;;;;;;5426980;26;19929;-53
2024/04/14 10:59:21;;;;;;;;;;;15.70;99.90;;;;;;5447660;26;19946;-53
2024/04/14 11:01:47;;;;;;;;;;;15.70;99.90;;;;;;5454964;26;19939;-53
2024/04/14 11:04:16;;;;;;;;;;;15.80;99.90;;;;;;5456688;26;20458;-53
2024/04/14 11:06:45;;;;;;;;;;;15.80;99.90;;;;;;5434785;26;19929;-51
2024/04/14 11:09:11;;;;;;;;;;;15.80;99.90;;;;;;5419086;26;19944;-52
2024/04/14 11:11:37;;;;;;;;;;;15.80;99.90;;;;;;5445125;26;19937;-49
2024/04/14 11:14:02;;;;;;;;;;;15.80;99.90;;;;;;5447921;26;19951;-49
2024/04/14 11:16:28;;;;;;;;;;;15.90;99.90;;;;;;5435371;26;19933;-49
2024/04/14 11:18:54;;;;;;;;;;;15.90;99.90;;;;;;5435538;26;19929;-48
2024/04/14 11:21:19;;;;;;;;;;;15.90;99.90;;;;;;5449267;26;19937;-49
2024/04/14 11:23:48;;;;;;;;;;;16.00;99.90;;;;;;5456088;26;19928;-49
2024/04/14 11:26:13;;;;;;;;;;;16.00;99.90;;;;;;5457457;26;20415;-49
2024/04/14 11:28:39;;;;;;;;;;;16.00;99.90;;;;;;5442655;26;19936;-45
2024/04/14 11:31:05;;;;;;;;;;;16.00;99.90;;;;;;5444991;26;20029;-47
2024/04/14 11:33:31;;;;;;;;;;;16.00;99.90;;;;;;5445351;26;20002;-45
2024/04/14 11:35:59;;;;;;;;;;;16.00;99.90;;;;;;5445486;26;19939;-48
2024/04/14 11:38:25;;;;;;;;;;;16.00;99.90;;;;;;5441588;26;19963;-46
2024/04/14 11:40:52;;;;;;;;;;;16.10;99.90;;;;;;5418894;26;19936;-49
2024/04/14 11:43:17;;;;;;;;;;;16.10;99.90;;;;;;5413534;26;19957;-49
2024/04/14 11:45:47;;;;;;;;;;;16.10;99.90;;;;;;5446143;26;20396;-47
2024/04/14 11:48:12;;;;;;;;;;;16.10;99.90;;;;;;5445013;26;19994;-47
2024/04/14 11:50:38;;;;;;;;;;;16.20;99.90;;;;;;5446843;26;19937;-48
2024/04/14 11:53:03;;;;;;;;;;;16.20;99.90;;;;;;5437619;26;19944;-47
2024/04/14 11:55:29;;;;;;;;;;;16.20;99.90;;;;;;5445041;26;19928;-49
2024/04/14 11:57:54;;;;;;;;;;;16.20;99.90;;;;;;5449036;26;19943;-49
2024/04/14 12:00:20;;;;;;;;;;;16.20;99.90;;;;;;5425916;26;19937;-47
2024/04/14 12:02:45;;;;;;;;;;;16.20;99.90;;;;;;5433214;26;19947;-47
2024/04/14 12:05:11;;;;;;;;;;;16.20;99.90;;;;;;5441617;26;19940;-47
2024/04/14 12:07:36;;;;;;;;;;;16.20;99.90;;;;;;5445272;26;19929;-47
2024/04/14 12:10:02;;;;;;;;;;;16.20;99.90;;;;;;5443467;26;19937;-49
2024/04/14 12:12:28;;;;;;;;;;;16.30;99.90;;;;;;5457151;26;20382;-49
2024/04/14 12:14:54;;;;;;;;;;;16.30;99.90;;;;;;5456550;26;19935;-52
2024/04/14 12:17:19;;;;;;;;;;;16.30;99.90;;;;;;5462452;26;19996;-49
2024/04/14 12:19:45;;;;;;;;;;;16.30;99.90;;;;;;5475035;26;19953;-48
2024/04/14 12:22:10;;;;;;;;;;;16.30;99.90;;;;;;5463965;26;20473;-47
2024/04/14 12:24:36;;;;;;;;;;;16.30;99.90;;;;;;5474134;26;19928;-49
2024/04/14 12:27:03;;;;;;;;;;;16.30;99.90;;;;;;5455792;26;19934;-51
2024/04/14 12:29:29;;;;;;;;;;;16.30;99.90;;;;;;5445773;26;19928;-53
2024/04/14 12:31:55;;;;;;;;;;;16.30;99.90;;;;;;5448330;26;19935;-54
2024/04/14 12:34:21;;;;;;;;;;;16.30;99.90;;;;;;5408861;26;19929;-52
2024/04/14 12:36:46;;;;;;;;;;;16.30;99.90;;;;;;5444355;26;19984;-56
2024/04/14 12:39:12;;;;;;;;;;;16.30;99.90;;;;;;5387140;26;19943;-51
2024/04/14 12:41:37;;;;;;;;;;;16.30;99.90;;;;;;5441271;26;19935;-55
2024/04/14 12:44:03;;;;;;;;;;;16.30;99.90;;;;;;5422800;26;20378;-52
2024/04/14 12:46:29;;;;;;;;;;;16.40;99.90;;;;;;5384284;26;19944;-52
2024/04/14 12:48:54;;;;;;;;;;;16.40;99.90;;;;;;5434435;26;20009;-52
2024/04/14 12:51:20;;;;;;;;;;;16.40;99.90;;;;;;5419917;26;19936;-54
2024/04/14 12:53:47;;;;;;;;;;;16.40;99.90;;;;;;5444211;26;19928;-51
2024/04/14 12:56:13;;;;;;;;;;;16.40;99.90;;;;;;5442089;26;19936;-54
2024/04/14 12:58:38;;;;;;;;;;;16.40;99.90;;;;;;5419927;26;20388;-54
2024/04/14 13:01:04;;;;;;;;;;;16.40;99.90;;;;;;5442580;26;19940;-52
2024/04/14 13:03:31;;;;;;;;;;;16.40;99.90;;;;;;5449832;26;19934;-50
2024/04/14 13:05:56;;;;;;;;;;;16.40;99.90;;;;;;5449704;26;19929;-49
2024/04/14 13:08:22;;;;;;;;;;;16.40;99.90;;;;;;5455083;26;19934;-53
2024/04/14 13:10:48;;;;;;;;;;;16.40;99.90;;;;;;5460588;26;19928;-53
2024/04/14 13:13:13;;;;;;;;;;;16.40;99.90;;;;;;5465431;26;20030;-53
2024/04/14 13:15:44;;;;;;;;;;;16.40;99.90;;;;;;5457043;26;19928;-55
2024/04/14 13:18:10;;;;;;;;;;;16.40;99.90;;;;;;5451223;26;20441;-56
2024/04/14 13:20:36;;;;;;;;;;;16.40;99.90;;;;;;5449650;26;19941;-48
2024/04/14 13:23:01;;;;;;;;;;;16.50;99.90;;;;;;5456128;26;19929;-54
2024/04/14 13:25:27;;;;;;;;;;;16.40;99.90;;;;;;5446747;26;19940;-51
2024/04/14 13:27:53;;;;;;;;;;;16.50;99.90;;;;;;5461720;26;20115;-52
2024/04/14 13:30:18;;;;;;;;;;;16.40;99.90;;;;;;5449169;26;19940;-52
2024/04/14 13:32:44;;;;;;;;;;;16.50;99.90;;;;;;5425027;26;19929;-49
2024/04/14 13:35:09;;;;;;;;;;;16.50;99.90;;;;;;5433510;26;19948;-49
2024/04/14 13:37:35;;;;;;;;;;;16.50;99.90;;;;;;5447555;26;19940;-47
2024/04/14 13:40:01;;;;;;;;;;;16.50;99.90;;;;;;5441423;26;20260;-54
2024/04/14 13:42:27;;;;;;;;;;;16.50;99.90;;;;;;5456736;26;19939;-55
2024/04/14 13:44:52;;;;;;;;;;;16.50;99.90;;;;;;5461558;26;19937;-54
2024/04/14 13:47:18;;;;;;;;;;;16.60;99.90;;;;;;5425668;26;19937;-52
2024/04/14 13:49:44;;;;;;;;;;;16.60;99.90;;;;;;5437746;26;19935;-53
2024/04/14 13:52:15;;;;;;;;;;;16.60;99.90;;;;;;5458930;26;19935;-54
2024/04/14 13:54:40;;;;;;;;;;;16.60;99.90;;;;;;5455932;26;19944;-52
2024/04/14 13:57:09;;;;;;;;;;;16.60;99.90;;;;;;5450044;26;20314;-51
2024/04/14 13:59:35;;;;;;;;;;;16.60;99.90;;;;;;5446593;26;19941;-50
2024/04/14 14:02:00;;;;;;;;;;;16.60;99.90;;;;;;5436371;26;20257;-48
2024/04/14 14:04:26;;;;;;;;;;;16.60;99.90;;;;;;5424777;26;19933;-50
2024/04/14 14:06:52;;;;;;;;;;;16.60;99.90;;;;;;5439177;26;19928;-53
2024/04/14 14:09:17;;;;;;;;;;;16.60;99.90;;;;;;5439814;26;19936;-51
2024/04/14 14:11:43;;;;;;;;;;;16.70;99.90;;;;;;5447249;26;19935;-51